sensor_id;sensor_type;location;lat;lon;timestamp;pressure;altitude;pressure_sealevel;temperature;humidity
69879;BME280;57161;43.136;24.706;2023-02-18T00:00:17;99841.81;;;5.40;58.12
69879;BME280;57161;43.136;24.706;2023-02-18T00:02:44;99830.88;;;5.26;58.21
69879;BME280;57161;43.136;24.706;2023-02-18T00:05:10;99826.06;;;5.21;58.29
69879;BME280;57161;43.136;24.706;2023-02-18T00:07:36;99854.38;;;5.36;58.58
69879;BME280;57161;43.136;24.706;2023-02-18T00:10:04;99847.50;;;5.26;59.02
69879;BME280;57161;43.136;24.706;2023-02-18T00:12:30;99837.91;;;5.21;59.20
69879;BME280;57161;43.136;24.706;2023-02-18T00:14:56;99840.13;;;5.17;59.08
69879;BME280;57161;43.136;24.706;2023-02-18T00:17:22;99833.13;;;5.22;59.62
69879;BME280;57161;43.136;24.706;2023-02-18T00:19:48;99828.28;;;5.17;59.46
69879;BME280;57161;43.136;24.706;2023-02-18T00:22:13;99841.34;;;5.10;59.76
69879;BME280;57161;43.136;24.706;2023-02-18T00:24:39;99823.28;;;4.89;59.66
69879;BME280;57161;43.136;24.706;2023-02-18T00:27:04;99819.53;;;4.92;59.75
69879;BME280;57161;43.136;24.706;2023-02-18T00:29:31;99840.88;;;5.18;59.27
69879;BME280;57161;43.136;24.706;2023-02-18T00:31:56;99845.78;;;5.02;60.02
69879;BME280;57161;43.136;24.706;2023-02-18T00:34:22;99828.25;;;4.85;60.00
69879;BME280;57161;43.136;24.706;2023-02-18T00:36:47;99828.53;;;4.87;60.06
69879;BME280;57161;43.136;24.706;2023-02-18T00:39:13;99802.19;;;4.71;60.11
69879;BME280;57161;43.136;24.706;2023-02-18T00:41:39;99794.59;;;4.66;60.09
69879;BME280;57161;43.136;24.706;2023-02-18T00:44:05;99821.03;;;4.93;59.85
69879;BME280;57161;43.136;24.706;2023-02-18T00:46:31;99814.16;;;4.83;60.41
69879;BME280;57161;43.136;24.706;2023-02-18T00:48:57;99805.63;;;4.87;60.36
69879;BME280;57161;43.136;24.706;2023-02-18T00:51:23;99805.69;;;4.92;60.16
69879;BME280;57161;43.136;24.706;2023-02-18T00:53:49;99797.31;;;4.87;60.33
69879;BME280;57161;43.136;24.706;2023-02-18T00:56:17;99800.63;;;4.91;60.30
69879;BME280;57161;43.136;24.706;2023-02-18T00:58:42;99752.03;;;4.58;60.57
69879;BME280;57161;43.136;24.706;2023-02-18T01:01:09;99796.84;;;4.88;60.50
69879;BME280;57161;43.136;24.706;2023-02-18T01:03:36;99792.25;;;4.85;60.50
69879;BME280;57161;43.136;24.706;2023-02-18T01:06:03;99767.66;;;4.61;60.94
69879;BME280;57161;43.136;24.706;2023-02-18T01:08:29;99741.66;;;4.53;60.61
69879;BME280;57161;43.136;24.706;2023-02-18T01:10:56;99780.28;;;4.68;60.63
69879;BME280;57161;43.136;24.706;2023-02-18T01:13:22;99780.63;;;4.75;60.69
69879;BME280;57161;43.136;24.706;2023-02-18T01:15:48;99790.38;;;4.71;60.99
69879;BME280;57161;43.136;24.706;2023-02-18T01:18:14;99787.41;;;4.74;60.79
69879;BME280;57161;43.136;24.706;2023-02-18T01:20:41;99780.13;;;4.77;60.76
69879;BME280;57161;43.136;24.706;2023-02-18T01:23:07;99759.72;;;4.74;60.31
69879;BME280;57161;43.136;24.706;2023-02-18T01:25:34;99787.22;;;4.83;60.17
69879;BME280;57161;43.136;24.706;2023-02-18T01:28:00;99777.63;;;4.79;60.43
69879;BME280;57161;43.136;24.706;2023-02-18T01:30:25;99723.44;;;4.41;60.65
69879;BME280;57161;43.136;24.706;2023-02-18T01:32:50;99752.03;;;4.58;60.48
69879;BME280;57161;43.136;24.706;2023-02-18T01:35:18;99775.00;;;4.70;60.28
69879;BME280;57161;43.136;24.706;2023-02-18T01:37:44;99792.50;;;4.81;60.21
69879;BME280;57161;43.136;24.706;2023-02-18T01:40:13;99792.25;;;4.85;60.33
69879;BME280;57161;43.136;24.706;2023-02-18T01:42:39;99794.59;;;4.92;60.14
69879;BME280;57161;43.136;24.706;2023-02-18T01:48:06;99794.22;;;4.79;60.60
69879;BME280;57161;43.136;24.706;2023-02-18T01:50:36;99786.84;;;4.70;60.70
69879;BME280;57161;43.136;24.706;2023-02-18T01:53:03;99773.19;;;4.61;60.86
69879;BME280;57161;43.136;24.706;2023-02-18T01:55:29;99783.00;;;4.62;60.58
69879;BME280;57161;43.136;24.706;2023-02-18T01:57:55;99744.81;;;4.40;60.83
69879;BME280;57161;43.136;24.706;2023-02-18T02:00:20;99758.44;;;4.44;61.20
69879;BME280;57161;43.136;24.706;2023-02-18T02:02:48;99772.34;;;4.55;61.39
69879;BME280;57161;43.136;24.706;2023-02-18T02:05:15;99750.06;;;4.38;61.27
69879;BME280;57161;43.136;24.706;2023-02-18T02:07:42;99750.81;;;4.39;61.36
69879;BME280;57161;43.136;24.706;2023-02-18T02:10:11;99761.25;;;4.49;61.18
69879;BME280;57161;43.136;24.706;2023-02-18T02:12:59;99761.72;;;4.48;61.63
69879;BME280;57161;43.136;24.706;2023-02-18T02:15:49;99740.34;;;4.22;61.92
69879;BME280;57161;43.136;24.706;2023-02-18T02:38:08;99754.16;;;4.22;62.48
69879;BME280;57161;43.136;24.706;2023-02-18T02:40:45;99753.34;;;4.16;62.65
69879;BME280;57161;43.136;24.706;2023-02-18T02:45:58;99764.16;;;4.14;62.71
69879;BME280;57161;43.136;24.706;2023-02-18T02:53:43;99761.34;;;4.09;62.86
69879;BME280;57161;43.136;24.706;2023-02-18T02:56:20;99763.66;;;4.16;62.54
69879;BME280;57161;43.136;24.706;2023-02-18T02:58:54;99694.16;;;3.82;62.11
69879;BME280;57161;43.136;24.706;2023-02-18T03:01:35;99757.50;;;4.27;62.30
69879;BME280;57161;43.136;24.706;2023-02-18T03:04:22;99746.72;;;4.29;62.02
69879;BME280;57161;43.136;24.706;2023-02-18T03:11:59;99754.47;;;4.25;62.16
69879;BME280;57161;43.136;24.706;2023-02-18T03:15:09;99750.28;;;4.35;61.69
69879;BME280;57161;43.136;24.706;2023-02-18T03:17:46;99739.75;;;4.39;61.58
69879;BME280;57161;43.136;24.706;2023-02-18T03:20:22;99739.47;;;4.37;61.60
69879;BME280;57161;43.136;24.706;2023-02-18T03:22:52;99733.25;;;4.42;61.57
69879;BME280;57161;43.136;24.706;2023-02-18T03:25:20;99737.31;;;4.46;61.50
69879;BME280;57161;43.136;24.706;2023-02-18T03:27:55;99725.91;;;4.39;61.55
69879;BME280;57161;43.136;24.706;2023-02-18T03:30:26;99751.91;;;4.47;61.44
69879;BME280;57161;43.136;24.706;2023-02-18T03:32:57;99756.06;;;4.37;61.87
69879;BME280;57161;43.136;24.706;2023-02-18T03:35:24;99726.63;;;4.08;62.43
69879;BME280;57161;43.136;24.706;2023-02-18T03:37:59;99730.75;;;4.18;62.63
69879;BME280;57161;43.136;24.706;2023-02-18T03:40:28;99688.50;;;3.91;62.23
69879;BME280;57161;43.136;24.706;2023-02-18T03:42:56;99718.38;;;4.13;62.38
69879;BME280;57161;43.136;24.706;2023-02-18T03:45:22;99713.97;;;4.01;63.03
69879;BME280;57161;43.136;24.706;2023-02-18T03:47:48;99720.44;;;3.92;62.53
69879;BME280;57161;43.136;24.706;2023-02-18T03:50:13;99741.63;;;4.01;63.06
69879;BME280;57161;43.136;24.706;2023-02-18T03:52:39;99734.31;;;3.98;63.17
69879;BME280;57161;43.136;24.706;2023-02-18T03:55:04;99738.72;;;4.10;63.16
69879;BME280;57161;43.136;24.706;2023-02-18T03:57:30;99743.22;;;4.08;62.96
69879;BME280;57161;43.136;24.706;2023-02-18T03:59:56;99721.94;;;3.94;63.38
69879;BME280;57161;43.136;24.706;2023-02-18T04:02:21;99705.00;;;3.86;63.25
69879;BME280;57161;43.136;24.706;2023-02-18T04:04:47;99709.66;;;3.95;63.03
69879;BME280;57161;43.136;24.706;2023-02-18T04:07:12;99736.00;;;4.16;62.94
69879;BME280;57161;43.136;24.706;2023-02-18T04:09:38;99698.84;;;3.97;63.17
69879;BME280;57161;43.136;24.706;2023-02-18T04:12:03;99706.06;;;4.14;62.95
69879;BME280;57161;43.136;24.706;2023-02-18T04:14:29;99693.63;;;4.25;62.33
69879;BME280;57161;43.136;24.706;2023-02-18T04:16:54;99712.78;;;4.60;61.46
69879;BME280;57161;43.136;24.706;2023-02-18T04:19:20;99710.38;;;4.73;61.23
69879;BME280;57161;43.136;24.706;2023-02-18T04:21:45;99705.59;;;4.73;61.16
69879;BME280;57161;43.136;24.706;2023-02-18T04:24:11;99704.63;;;4.76;60.99
69879;BME280;57161;43.136;24.706;2023-02-18T04:26:36;99713.34;;;4.69;61.26
69879;BME280;57161;43.136;24.706;2023-02-18T04:29:03;99680.47;;;4.45;61.29
69879;BME280;57161;43.136;24.706;2023-02-18T04:31:28;99713.09;;;4.67;61.47
69879;BME280;57161;43.136;24.706;2023-02-18T04:33:54;99692.16;;;4.61;61.12
69879;BME280;57161;43.136;24.706;2023-02-18T04:36:19;99719.44;;;4.73;61.20
69879;BME280;57161;43.136;24.706;2023-02-18T04:38:45;99717.59;;;4.65;61.40
69879;BME280;57161;43.136;24.706;2023-02-18T04:41:10;99685.78;;;4.49;61.26
69879;BME280;57161;43.136;24.706;2023-02-18T04:43:37;99709.25;;;4.59;61.27
69879;BME280;57161;43.136;24.706;2023-02-18T04:46:03;99685.88;;;4.34;61.20
69879;BME280;57161;43.136;24.706;2023-02-18T04:48:29;99690.28;;;4.46;61.46
69879;BME280;57161;43.136;24.706;2023-02-18T04:50:54;99707.81;;;4.69;61.19
69879;BME280;57161;43.136;24.706;2023-02-18T04:53:20;99690.94;;;4.67;60.87
69879;BME280;57161;43.136;24.706;2023-02-18T04:55:50;99663.66;;;4.55;60.88
69879;BME280;57161;43.136;24.706;2023-02-18T04:58:16;99654.81;;;4.45;60.83
69879;BME280;57161;43.136;24.706;2023-02-18T05:00:41;99695.34;;;4.85;60.82
69879;BME280;57161;43.136;24.706;2023-02-18T05:03:07;99688.78;;;4.82;60.99
69879;BME280;57161;43.136;24.706;2023-02-18T05:05:32;99685.50;;;4.78;60.92
69879;BME280;57161;43.136;24.706;2023-02-18T05:07:57;99646.75;;;4.47;60.65
69879;BME280;57161;43.136;24.706;2023-02-18T05:10:23;99682.16;;;4.69;60.81
69879;BME280;57161;43.136;24.706;2023-02-18T05:12:48;99673.19;;;4.85;60.25
69879;BME280;57161;43.136;24.706;2023-02-18T05:15:14;99696.72;;;5.01;60.24
69879;BME280;57161;43.136;24.706;2023-02-18T05:17:39;99688.56;;;4.86;60.51
69879;BME280;57161;43.136;24.706;2023-02-18T05:20:05;99696.47;;;4.99;60.34
69879;BME280;57161;43.136;24.706;2023-02-18T05:22:31;99680.31;;;4.92;60.34
69879;BME280;57161;43.136;24.706;2023-02-18T05:24:56;99687.47;;;5.09;60.05
69879;BME280;57161;43.136;24.706;2023-02-18T05:27:24;99695.53;;;5.07;59.99
69879;BME280;57161;43.136;24.706;2023-02-18T05:29:49;99685.47;;;5.10;60.04
69879;BME280;57161;43.136;24.706;2023-02-18T05:32:15;99652.38;;;4.95;59.92
69879;BME280;57161;43.136;24.706;2023-02-18T05:34:41;99660.50;;;5.04;59.89
69879;BME280;57161;43.136;24.706;2023-02-18T05:37:06;99670.13;;;5.15;60.00
69879;BME280;57161;43.136;24.706;2023-02-18T05:39:31;99659.84;;;5.21;60.13
69879;BME280;57161;43.136;24.706;2023-02-18T05:41:57;99673.72;;;5.32;60.18
69879;BME280;57161;43.136;24.706;2023-02-18T05:44:22;99656.84;;;5.30;59.83
69879;BME280;57161;43.136;24.706;2023-02-18T05:46:55;99676.56;;;5.37;59.74
69879;BME280;57161;43.136;24.706;2023-02-18T05:49:21;99608.66;;;5.10;59.24
69879;BME280;57161;43.136;24.706;2023-02-18T05:51:46;99667.56;;;5.59;59.09
69879;BME280;57161;43.136;24.706;2023-02-18T05:54:12;99645.84;;;5.47;58.96
69879;BME280;57161;43.136;24.706;2023-02-18T05:56:37;99634.03;;;5.57;58.74
69879;BME280;57161;43.136;24.706;2023-02-18T05:59:03;99663.38;;;5.86;58.35
69879;BME280;57161;43.136;24.706;2023-02-18T06:01:28;99660.09;;;5.88;57.96
69879;BME280;57161;43.136;24.706;2023-02-18T06:03:54;99644.50;;;6.01;57.76
69879;BME280;57161;43.136;24.706;2023-02-18T06:06:19;99668.50;;;6.21;57.42
69879;BME280;57161;43.136;24.706;2023-02-18T06:08:45;99659.69;;;6.34;56.90
69879;BME280;57161;43.136;24.706;2023-02-18T06:11:10;99633.94;;;6.06;57.14
69879;BME280;57161;43.136;24.706;2023-02-18T06:13:36;99665.22;;;6.23;57.11
69879;BME280;57161;43.136;24.706;2023-02-18T06:16:01;99668.00;;;6.28;57.21
69879;BME280;57161;43.136;24.706;2023-02-18T06:18:26;99603.59;;;5.80;57.39
69879;BME280;57161;43.136;24.706;2023-02-18T06:20:52;99667.00;;;6.20;57.44
69879;BME280;57161;43.136;24.706;2023-02-18T06:23:17;99687.19;;;6.38;57.62
69879;BME280;57161;43.136;24.706;2023-02-18T06:25:43;99687.69;;;6.47;57.23
69879;BME280;57161;43.136;24.706;2023-02-18T06:28:08;99676.59;;;6.64;56.55
69879;BME280;57161;43.136;24.706;2023-02-18T06:30:34;99673.59;;;6.68;56.53
69879;BME280;57161;43.136;24.706;2023-02-18T06:32:59;99660.69;;;6.70;56.25
69879;BME280;57161;43.136;24.706;2023-02-18T06:35:28;99641.50;;;6.67;55.87
69879;BME280;57161;43.136;24.706;2023-02-18T06:37:53;99670.50;;;6.99;55.37
69879;BME280;57161;43.136;24.706;2023-02-18T06:40:19;99644.50;;;6.97;55.36
69879;BME280;57161;43.136;24.706;2023-02-18T06:42:44;99633.88;;;6.95;55.24
69879;BME280;57161;43.136;24.706;2023-02-18T06:45:10;99650.03;;;7.08;54.99
69879;BME280;57161;43.136;24.706;2023-02-18T06:47:35;99655.81;;;7.15;55.27
69879;BME280;57161;43.136;24.706;2023-02-18T06:50:01;99659.09;;;7.19;55.32
69879;BME280;57161;43.136;24.706;2023-02-18T06:52:27;99610.16;;;7.00;55.32
69879;BME280;57161;43.136;24.706;2023-02-18T06:54:54;99643.91;;;7.26;55.18
69879;BME280;57161;43.136;24.706;2023-02-18T06:57:20;99643.84;;;7.43;54.97
69879;BME280;57161;43.136;24.706;2023-02-18T06:59:45;99614.09;;;7.27;54.84
69879;BME280;57161;43.136;24.706;2023-02-18T07:02:12;99642.28;;;7.53;54.85
69879;BME280;57161;43.136;24.706;2023-02-18T07:04:37;99589.78;;;7.38;54.63
69879;BME280;57161;43.136;24.706;2023-02-18T07:07:03;99633.59;;;7.73;54.52
69879;BME280;57161;43.136;24.706;2023-02-18T07:09:28;99630.00;;;7.84;53.88
69879;BME280;57161;43.136;24.706;2023-02-18T07:11:54;99624.63;;;7.92;53.93
69879;BME280;57161;43.136;24.706;2023-02-18T07:14:19;99647.25;;;8.18;53.51
69879;BME280;57161;43.136;24.706;2023-02-18T07:16:45;99615.19;;;8.06;53.22
69879;BME280;57161;43.136;24.706;2023-02-18T07:19:10;99658.75;;;8.39;52.77
69879;BME280;57161;43.136;24.706;2023-02-18T07:21:36;99648.84;;;8.43;52.27
69879;BME280;57161;43.136;24.706;2023-02-18T07:24:01;99645.34;;;8.37;52.19
69879;BME280;57161;43.136;24.706;2023-02-18T07:26:27;99677.34;;;8.55;52.08
69879;BME280;57161;43.136;24.706;2023-02-18T07:28:52;99679.16;;;8.53;52.24
69879;BME280;57161;43.136;24.706;2023-02-18T07:31:18;99632.22;;;8.27;52.01
69879;BME280;57161;43.136;24.706;2023-02-18T07:33:44;99649.03;;;8.51;52.16
69879;BME280;57161;43.136;24.706;2023-02-18T07:36:09;99675.34;;;8.86;52.06
69879;BME280;57161;43.136;24.706;2023-02-18T07:38:35;99641.13;;;8.85;51.81
69879;BME280;57161;43.136;24.706;2023-02-18T07:41:00;99651.19;;;9.18;51.44
69879;BME280;57161;43.136;24.706;2023-02-18T07:43:26;99667.44;;;9.57;50.38
69879;BME280;57161;43.136;24.706;2023-02-18T07:45:51;99683.41;;;9.81;50.03
69879;BME280;57161;43.136;24.706;2023-02-18T07:48:17;99672.59;;;9.91;49.78
69879;BME280;57161;43.136;24.706;2023-02-18T07:50:44;99674.66;;;10.09;49.08
69879;BME280;57161;43.136;24.706;2023-02-18T07:53:11;99666.72;;;10.32;49.21
69879;BME280;57161;43.136;24.706;2023-02-18T07:55:40;99676.50;;;10.58;48.49
69879;BME280;57161;43.136;24.706;2023-02-18T07:58:29;99670.75;;;10.82;47.81
69879;BME280;57161;43.136;24.706;2023-02-18T08:00:55;99653.25;;;11.21;45.66
69879;BME280;57161;43.136;24.706;2023-02-18T08:03:27;99670.16;;;12.16;42.93
69879;BME280;57161;43.136;24.706;2023-02-18T08:05:54;99671.84;;;12.74;41.81
69879;BME280;57161;43.136;24.706;2023-02-18T08:08:23;99666.69;;;13.35;40.03
69879;BME280;57161;43.136;24.706;2023-02-18T08:10:50;99664.28;;;13.75;39.40
69879;BME280;57161;43.136;24.706;2023-02-18T08:13:16;99673.97;;;14.18;38.80
69879;BME280;57161;43.136;24.706;2023-02-18T08:15:42;99667.50;;;14.61;37.75
69879;BME280;57161;43.136;24.706;2023-02-18T08:18:14;99646.69;;;14.79;37.22
69879;BME280;57161;43.136;24.706;2023-02-18T08:20:39;99643.88;;;15.10;36.26
69879;BME280;57161;43.136;24.706;2023-02-18T08:23:05;99648.72;;;15.32;35.82
69879;BME280;57161;43.136;24.706;2023-02-18T08:25:31;99668.88;;;15.76;35.17
69879;BME280;57161;43.136;24.706;2023-02-18T08:27:58;99660.06;;;15.72;35.30
69879;BME280;57161;43.136;24.706;2023-02-18T08:30:24;99659.47;;;15.81;34.89
69879;BME280;57161;43.136;24.706;2023-02-18T08:32:50;99670.88;;;15.99;34.56
69879;BME280;57161;43.136;24.706;2023-02-18T08:35:15;99672.84;;;16.13;34.20
69879;BME280;57161;43.136;24.706;2023-02-18T08:37:41;99659.19;;;16.02;34.77
69879;BME280;57161;43.136;24.706;2023-02-18T08:40:07;99654.88;;;16.01;34.38
69879;BME280;57161;43.136;24.706;2023-02-18T08:42:33;99665.72;;;16.12;34.48
69879;BME280;57161;43.136;24.706;2023-02-18T08:44:59;99674.19;;;16.05;34.68
69879;BME280;57161;43.136;24.706;2023-02-18T08:47:24;99661.84;;;16.00;34.53
69879;BME280;57161;43.136;24.706;2023-02-18T08:49:52;99656.44;;;15.87;34.28
69879;BME280;57161;43.136;24.706;2023-02-18T08:52:18;99669.59;;;15.84;34.40
69879;BME280;57161;43.136;24.706;2023-02-18T08:54:44;99667.38;;;15.83;34.76
69879;BME280;57161;43.136;24.706;2023-02-18T08:57:09;99661.50;;;15.88;34.68
69879;BME280;57161;43.136;24.706;2023-02-18T08:59:34;99669.56;;;15.92;34.76
69879;BME280;57161;43.136;24.706;2023-02-18T09:02:00;99675.53;;;16.04;34.96
69879;BME280;57161;43.136;24.706;2023-02-18T09:04:25;99658.63;;;16.04;34.45
69879;BME280;57161;43.136;24.706;2023-02-18T09:06:51;99684.50;;;16.10;34.88
69879;BME280;57161;43.136;24.706;2023-02-18T09:09:17;99656.63;;;15.89;35.45
69879;BME280;57161;43.136;24.706;2023-02-18T09:11:43;99712.31;;;16.13;35.50
69879;BME280;57161;43.136;24.706;2023-02-18T09:14:09;99693.41;;;15.99;35.25
69879;BME280;57161;43.136;24.706;2023-02-18T09:16:35;99699.16;;;16.08;35.43
69879;BME280;57161;43.136;24.706;2023-02-18T09:19:02;99700.50;;;16.07;35.89
69879;BME280;57161;43.136;24.706;2023-02-18T09:21:28;99695.88;;;15.95;36.09
69879;BME280;57161;43.136;24.706;2023-02-18T09:23:54;99704.81;;;16.08;36.03
69879;BME280;57161;43.136;24.706;2023-02-18T09:26:20;99718.59;;;15.97;36.31
69879;BME280;57161;43.136;24.706;2023-02-18T09:28:48;99710.88;;;15.97;35.94
69879;BME280;57161;43.136;24.706;2023-02-18T09:31:16;99713.53;;;15.95;36.43
69879;BME280;57161;43.136;24.706;2023-02-18T09:34:08;99718.31;;;16.17;36.23
69879;BME280;57161;43.136;24.706;2023-02-18T09:36:33;99701.75;;;16.21;35.47
69879;BME280;57161;43.136;24.706;2023-02-18T09:38:59;99712.03;;;16.27;35.97
69879;BME280;57161;43.136;24.706;2023-02-18T09:41:33;99685.38;;;16.28;35.63
69879;BME280;57161;43.136;24.706;2023-02-18T09:44:05;99707.78;;;16.50;35.59
69879;BME280;57161;43.136;24.706;2023-02-18T09:46:47;99712.41;;;16.63;35.63
69879;BME280;57161;43.136;24.706;2023-02-18T09:49:21;99711.97;;;16.74;35.55
69879;BME280;57161;43.136;24.706;2023-02-18T09:51:48;99703.72;;;16.76;35.70
69879;BME280;57161;43.136;24.706;2023-02-18T09:54:16;99717.81;;;16.76;35.32
69879;BME280;57161;43.136;24.706;2023-02-18T09:56:43;99708.72;;;16.53;35.52
69879;BME280;57161;43.136;24.706;2023-02-18T09:59:29;99733.78;;;16.41;35.66
69879;BME280;57161;43.136;24.706;2023-02-18T10:01:55;99720.31;;;16.32;35.84
69879;BME280;57161;43.136;24.706;2023-02-18T10:04:27;99716.75;;;16.32;35.76
69879;BME280;57161;43.136;24.706;2023-02-18T10:06:56;99690.78;;;16.33;35.55
69879;BME280;57161;43.136;24.706;2023-02-18T10:09:34;99719.25;;;16.52;35.54
69879;BME280;57161;43.136;24.706;2023-02-18T10:12:13;99718.81;;;16.31;34.80
69879;BME280;57161;43.136;24.706;2023-02-18T10:14:39;99701.75;;;16.21;35.19
69879;BME280;57161;43.136;24.706;2023-02-18T10:17:06;99714.69;;;16.25;35.35
69879;BME280;57161;43.136;24.706;2023-02-18T10:19:37;99697.84;;;16.09;35.33
69879;BME280;57161;43.136;24.706;2023-02-18T10:22:09;99710.03;;;16.19;35.73
69879;BME280;57161;43.136;24.706;2023-02-18T10:24:43;99710.75;;;16.28;35.55
69879;BME280;57161;43.136;24.706;2023-02-18T10:27:16;99698.50;;;16.33;35.58
69879;BME280;57161;43.136;24.706;2023-02-18T10:29:43;99695.34;;;16.29;35.55
69879;BME280;57161;43.136;24.706;2023-02-18T10:32:30;99702.00;;;16.41;35.70
69879;BME280;57161;43.136;24.706;2023-02-18T10:35:10;99675.19;;;16.32;35.92
69879;BME280;57161;43.136;24.706;2023-02-18T10:51:29;99682.56;;;16.28;35.19
69879;BME280;57161;43.136;24.706;2023-02-18T10:53:56;99668.16;;;16.16;35.25
69879;BME280;57161;43.136;24.706;2023-02-18T10:57:00;99645.25;;;16.12;35.17
69879;BME280;57161;43.136;24.706;2023-02-18T10:59:32;99666.31;;;16.36;35.20
69879;BME280;57161;43.136;24.706;2023-02-18T11:02:17;99687.38;;;16.35;35.34
69879;BME280;57161;43.136;24.706;2023-02-18T11:04:44;99656.06;;;16.23;35.31
69879;BME280;57161;43.136;24.706;2023-02-18T11:07:22;99656.19;;;16.33;35.45
69879;BME280;57161;43.136;24.706;2023-02-18T11:09:57;99665.72;;;16.45;34.93
69879;BME280;57161;43.136;24.706;2023-02-18T11:12:33;99658.38;;;16.42;35.09
69879;BME280;57161;43.136;24.706;2023-02-18T11:17:32;99636.56;;;16.17;34.85
69879;BME280;57161;43.136;24.706;2023-02-18T11:20:00;99626.28;;;16.05;35.26
69879;BME280;57161;43.136;24.706;2023-02-18T11:22:33;99655.22;;;16.38;34.99
69879;BME280;57161;43.136;24.706;2023-02-18T11:25:03;99642.03;;;16.40;34.85
69879;BME280;57161;43.136;24.706;2023-02-18T11:27:44;99622.13;;;16.38;35.02
69879;BME280;57161;43.136;24.706;2023-02-18T11:30:21;99629.06;;;16.45;35.20
69879;BME280;57161;43.136;24.706;2023-02-18T11:32:58;99638.63;;;16.42;35.46
69879;BME280;57161;43.136;24.706;2023-02-18T11:35:27;99643.53;;;16.41;35.05
69879;BME280;57161;43.136;24.706;2023-02-18T11:37:56;99639.22;;;16.40;35.45
69879;BME280;57161;43.136;24.706;2023-02-18T11:40:34;99643.31;;;16.47;35.34
69879;BME280;57161;43.136;24.706;2023-02-18T11:43:10;99630.31;;;16.51;35.20
69879;BME280;57161;43.136;24.706;2023-02-18T11:45:36;99606.53;;;16.37;35.42
69879;BME280;57161;43.136;24.706;2023-02-18T11:50:39;99624.38;;;16.65;35.58
69879;BME280;57161;43.136;24.706;2023-02-18T11:53:31;99616.41;;;16.78;35.09
69879;BME280;57161;43.136;24.706;2023-02-18T11:55:59;99627.91;;;16.73;34.90
69879;BME280;57161;43.136;24.706;2023-02-18T11:58:26;99610.50;;;16.59;34.96
69879;BME280;57161;43.136;24.706;2023-02-18T12:00:58;99603.56;;;16.60;34.97
69879;BME280;57161;43.136;24.706;2023-02-18T12:05:54;99609.00;;;16.58;34.67
69879;BME280;57161;43.136;24.706;2023-02-18T12:08:27;99618.41;;;16.61;34.50
69879;BME280;57161;43.136;24.706;2023-02-18T12:11:05;99594.72;;;16.56;35.11
69879;BME280;57161;43.136;24.706;2023-02-18T12:13:42;99602.63;;;16.58;34.84
69879;BME280;57161;43.136;24.706;2023-02-18T12:19:08;99593.13;;;16.70;34.60
69879;BME280;57161;43.136;24.706;2023-02-18T12:24:17;99581.13;;;17.04;34.86
69879;BME280;57161;43.136;24.706;2023-02-18T12:27:08;99558.63;;;16.79;34.20
69879;BME280;57161;43.136;24.706;2023-02-18T12:44:00;99558.91;;;17.26;35.94
69879;BME280;57161;43.136;24.706;2023-02-18T12:46:42;99552.00;;;17.19;36.45
69879;BME280;57161;43.136;24.706;2023-02-18T12:49:16;99565.19;;;17.34;37.34
69879;BME280;57161;43.136;24.706;2023-02-18T12:57:39;99571.53;;;17.42;38.13
69879;BME280;57161;43.136;24.706;2023-02-18T13:06:07;99547.28;;;17.66;38.60
69879;BME280;57161;43.136;24.706;2023-02-18T13:14:19;99530.56;;;17.33;38.76
69879;BME280;57161;43.136;24.706;2023-02-18T13:16:48;99558.16;;;17.25;38.30
69879;BME280;57161;43.136;24.706;2023-02-18T13:21:48;99518.63;;;17.08;38.37
69879;BME280;57161;43.136;24.706;2023-02-18T13:26:57;99553.66;;;17.22;38.63
69879;BME280;57161;43.136;24.706;2023-02-18T13:29:30;99556.75;;;16.99;38.23
69879;BME280;57161;43.136;24.706;2023-02-18T13:32:35;99561.78;;;16.84;38.02
69879;BME280;57161;43.136;24.706;2023-02-18T13:40:20;99579.66;;;16.61;38.71
69879;BME280;57161;43.136;24.706;2023-02-18T13:42:53;99589.63;;;16.62;39.03
69879;BME280;57161;43.136;24.706;2023-02-18T13:45:31;99541.44;;;16.43;39.21
69879;BME280;57161;43.136;24.706;2023-02-18T13:47:57;99544.94;;;16.51;39.46
69879;BME280;57161;43.136;24.706;2023-02-18T13:58:01;99514.88;;;16.29;39.14
69879;BME280;57161;43.136;24.706;2023-02-18T14:00:39;99563.47;;;16.62;38.90
69879;BME280;57161;43.136;24.706;2023-02-18T14:03:34;99556.00;;;16.57;38.71
69879;BME280;57161;43.136;24.706;2023-02-18T14:06:00;99546.16;;;16.40;38.55
69879;BME280;57161;43.136;24.706;2023-02-18T14:08:33;99571.38;;;16.63;38.20
69879;BME280;57161;43.136;24.706;2023-02-18T14:13:42;99574.97;;;16.56;38.31
69879;BME280;57161;43.136;24.706;2023-02-18T14:16:09;99581.78;;;16.53;38.31
69879;BME280;57161;43.136;24.706;2023-02-18T14:23:47;99573.50;;;16.30;38.51
69879;BME280;57161;43.136;24.706;2023-02-18T14:28:58;99535.75;;;16.01;38.56
69879;BME280;57161;43.136;24.706;2023-02-18T14:37:30;99560.09;;;16.13;38.14
69879;BME280;57161;43.136;24.706;2023-02-18T14:40:21;99557.63;;;16.17;38.24
69879;BME280;57161;43.136;24.706;2023-02-18T14:43:00;99549.34;;;16.19;37.72
69879;BME280;57161;43.136;24.706;2023-02-18T14:48:57;99544.16;;;16.08;38.08
69879;BME280;57161;43.136;24.706;2023-02-18T14:51:28;99541.69;;;16.12;37.70
69879;BME280;57161;43.136;24.706;2023-02-18T14:53:55;99534.00;;;16.13;37.91
69879;BME280;57161;43.136;24.706;2023-02-18T14:56:21;99492.53;;;15.73;37.86
69879;BME280;57161;43.136;24.706;2023-02-18T14:58:51;99501.81;;;15.91;37.82
69879;BME280;57161;43.136;24.706;2023-02-18T15:01:25;99479.44;;;15.68;38.26
69879;BME280;57161;43.136;24.706;2023-02-18T15:03:53;99536.84;;;16.05;38.41
69879;BME280;57161;43.136;24.706;2023-02-18T15:06:32;99544.16;;;16.08;38.32
69879;BME280;57161;43.136;24.706;2023-02-18T15:08:59;99553.75;;;16.05;38.05
69879;BME280;57161;43.136;24.706;2023-02-18T15:11:36;99476.34;;;15.49;38.38
69879;BME280;57161;43.136;24.706;2023-02-18T15:14:09;99553.59;;;16.03;38.47
69879;BME280;57161;43.136;24.706;2023-02-18T15:16:36;99518.53;;;15.64;38.42